createdAt,value
2018-04-27T00:00:06.032Z,1027.32857574
2018-04-27T00:00:18.575Z,1027.32857574
2018-04-27T00:00:31.016Z,1027.32857574
2018-04-27T00:00:43.438Z,1027.32857574
2018-04-27T00:00:55.872Z,1027.32857574
2018-04-27T00:01:08.295Z,1027.2269841
2018-04-27T00:01:20.715Z,1027.2269841
2018-04-27T00:01:33.138Z,1027.2269841
2018-04-27T00:01:45.565Z,1027.2269841
2018-04-27T00:01:58.009Z,1027.2269841
2018-04-27T00:02:10.527Z,1027.2269841
2018-04-27T00:02:22.940Z,1027.2269841
2018-04-27T00:02:35.396Z,1027.2269841
2018-04-27T00:02:47.816Z,1027.2269841
2018-04-27T00:03:00.243Z,1027.2269841
2018-04-27T00:03:12.686Z,1027.19312021
2018-04-27T00:03:25.119Z,1027.19312021
2018-04-27T00:03:37.564Z,1027.19312021
2018-04-27T00:03:49.982Z,1027.19312021
2018-04-27T00:04:02.390Z,1027.26084798
2018-04-27T00:04:14.819Z,1027.26084798
2018-04-27T00:04:27.232Z,1027.26084798
2018-04-27T00:04:39.637Z,1027.26084798
2018-04-27T00:04:52.053Z,1027.26084798
2018-04-27T00:05:04.914Z,1027.26084798
2018-04-27T00:05:17.985Z,1027.26084798
2018-04-27T00:05:30.407Z,1027.26084798
2018-04-27T00:05:42.810Z,1027.26084798
2018-04-27T00:05:55.226Z,1027.26084798
2018-04-27T00:06:07.627Z,1027.12539245
2018-04-27T00:06:20.044Z,1027.12539245
2018-04-27T00:06:32.469Z,1027.12539245
2018-04-27T00:06:44.884Z,1027.12539245
2018-04-27T00:06:57.302Z,1027.12539245
2018-04-27T00:07:09.726Z,1027.26084798
2018-04-27T00:07:22.143Z,1027.26084798
2018-04-27T00:07:34.554Z,1027.26084798
2018-04-27T00:07:46.963Z,1027.26084798
2018-04-27T00:07:59.384Z,1027.26084798
2018-04-27T00:08:11.798Z,1027.26084798
2018-04-27T00:08:24.265Z,1027.26084798
2018-04-27T00:08:36.659Z,1027.26084798
2018-04-27T00:08:49.063Z,1027.26084798
2018-04-27T00:09:01.461Z,1027.26084798
2018-04-27T00:09:13.895Z,1027.26084798
2018-04-27T00:09:26.354Z,1027.26084798
2018-04-27T00:09:38.788Z,1027.26084798
2018-04-27T00:09:51.276Z,1027.26084798
2018-04-27T00:10:03.685Z,1027.19312021
2018-04-27T00:10:16.159Z,1027.19312021
2018-04-27T00:10:28.595Z,1027.19312021
2018-04-27T00:10:40.991Z,1027.19312021
2018-04-27T00:10:53.392Z,1027.19312021
2018-04-27T00:11:05.795Z,1027.2269841
2018-04-27T00:11:18.204Z,1027.2269841
2018-04-27T00:11:30.603Z,1027.2269841
2018-04-27T00:11:43.006Z,1027.2269841
2018-04-27T00:11:55.425Z,1027.2269841
2018-04-27T00:12:07.827Z,1027.19312021
2018-04-27T00:12:20.399Z,1027.19312021
2018-04-27T00:12:32.805Z,1027.19312021
2018-04-27T00:12:45.304Z,1027.19312021
2018-04-27T00:12:57.722Z,1027.19312021
2018-04-27T00:13:10.169Z,1027.15925633
2018-04-27T00:13:22.597Z,1027.15925633
2018-04-27T00:13:35.059Z,1027.15925633
2018-04-27T00:13:47.599Z,1027.15925633
2018-04-27T00:13:59.997Z,1027.15925633
2018-04-27T00:14:12.491Z,1027.12539245
2018-04-27T00:14:24.904Z,1027.12539245
2018-04-27T00:14:37.314Z,1027.12539245
2018-04-27T00:14:49.730Z,1027.12539245
2018-04-27T00:15:02.130Z,1027.15925633
2018-04-27T00:15:14.538Z,1027.15925633
2018-04-27T00:15:26.989Z,1027.15925633
2018-04-27T00:15:39.417Z,1027.15925633
2018-04-27T00:15:51.840Z,1027.15925633
2018-04-27T00:16:04.243Z,1027.15925633
2018-04-27T00:16:16.650Z,1027.15925633
2018-04-27T00:16:29.071Z,1027.15925633
2018-04-27T00:16:41.472Z,1027.15925633
2018-04-27T00:16:53.883Z,1027.15925633
2018-04-27T00:17:06.293Z,1027.05766469
2018-04-27T00:17:18.699Z,1027.05766469
2018-04-27T00:17:31.104Z,1027.05766469
2018-04-27T00:17:43.513Z,1027.05766469
2018-04-27T00:17:55.925Z,1027.05766469
2018-04-27T00:18:08.329Z,1027.15925633
2018-04-27T00:18:20.752Z,1027.15925633
2018-04-27T00:18:33.429Z,1027.15925633
2018-04-27T00:18:45.844Z,1027.15925633
2018-04-27T00:18:58.257Z,1027.15925633
2018-04-27T00:19:10.672Z,1027.05766469
2018-04-27T00:19:23.143Z,1027.05766469
2018-04-27T00:19:35.594Z,1027.05766469
2018-04-27T00:19:48.084Z,1027.05766469
2018-04-27T00:20:00.490Z,1027.02380081
2018-04-27T00:20:12.907Z,1027.02380081
2018-04-27T00:20:25.307Z,1027.02380081
2018-04-27T00:20:37.717Z,1027.02380081
2018-04-27T00:20:50.125Z,1027.02380081
2018-04-27T00:21:02.535Z,1027.09152857
2018-04-27T00:21:14.942Z,1027.09152857
2018-04-27T00:21:27.350Z,1027.09152857
2018-04-27T00:21:39.792Z,1027.09152857
2018-04-27T00:21:52.421Z,1027.09152857
2018-04-27T00:22:04.818Z,1027.09152857
2018-04-27T00:22:17.230Z,1027.09152857
2018-04-27T00:22:29.634Z,1027.09152857
2018-04-27T00:22:42.046Z,1027.09152857
2018-04-27T00:22:54.450Z,1027.09152857
2018-04-27T00:23:06.866Z,1027.15925633
2018-04-27T00:23:19.313Z,1027.15925633
2018-04-27T00:23:31.714Z,1027.15925633
2018-04-27T00:23:44.134Z,1027.15925633
2018-04-27T00:23:56.551Z,1027.15925633
2018-04-27T00:24:08.953Z,1027.12539245
2018-04-27T00:24:21.358Z,1027.12539245
2018-04-27T00:24:33.761Z,1027.12539245
2018-04-27T00:24:46.223Z,1027.12539245
2018-04-27T00:24:58.688Z,1027.12539245
2018-04-27T00:25:11.096Z,1027.19312021
2018-04-27T00:25:23.558Z,1027.19312021
2018-04-27T00:25:35.962Z,1027.19312021
2018-04-27T00:25:48.429Z,1027.19312021
2018-04-27T00:26:00.839Z,1027.15925633
2018-04-27T00:26:13.262Z,1027.15925633
2018-04-27T00:26:25.667Z,1027.15925633
2018-04-27T00:26:38.084Z,1027.15925633
2018-04-27T00:26:50.486Z,1027.15925633
2018-04-27T00:27:02.949Z,1027.19312021
2018-04-27T00:27:15.361Z,1027.19312021
2018-04-27T00:27:27.786Z,1027.19312021
2018-04-27T00:27:40.200Z,1027.19312021
2018-04-27T00:27:52.627Z,1027.19312021
2018-04-27T00:28:05.047Z,1027.15925633
2018-04-27T00:28:17.538Z,1027.15925633
2018-04-27T00:28:29.941Z,1027.15925633
2018-04-27T00:28:42.353Z,1027.15925633
2018-04-27T00:28:54.763Z,1027.15925633
2018-04-27T00:29:07.159Z,1027.29471186
2018-04-27T00:29:19.641Z,1027.29471186
2018-04-27T00:29:32.073Z,1027.29471186
2018-04-27T00:29:44.483Z,1027.29471186
2018-04-27T00:29:56.899Z,1027.29471186
2018-04-27T00:30:09.409Z,1027.26084798
2018-04-27T00:30:21.927Z,1027.26084798
2018-04-27T00:30:34.340Z,1027.26084798
2018-04-27T00:30:46.750Z,1027.26084798
2018-04-27T00:30:59.154Z,1027.26084798
2018-04-27T00:31:11.577Z,1027.32857574
2018-04-27T00:31:23.983Z,1027.32857574
2018-04-27T00:31:36.405Z,1027.32857574
2018-04-27T00:31:48.827Z,1027.32857574
2018-04-27T00:32:01.239Z,1027.2269841
2018-04-27T00:32:13.654Z,1027.2269841
2018-04-27T00:32:26.073Z,1027.2269841
2018-04-27T00:32:38.491Z,1027.2269841
2018-04-27T00:32:50.895Z,1027.2269841
2018-04-27T00:33:03.303Z,1027.2269841
2018-04-27T00:33:15.701Z,1027.2269841
2018-04-27T00:33:28.120Z,1027.2269841
2018-04-27T00:33:40.521Z,1027.2269841
2018-04-27T00:33:53.205Z,1027.2269841
2018-04-27T00:34:05.617Z,1027.2269841
2018-04-27T00:34:18.191Z,1027.2269841
2018-04-27T00:34:31.542Z,1027.2269841
2018-04-27T00:34:43.952Z,1027.2269841
2018-04-27T00:34:56.370Z,1027.2269841
2018-04-27T00:35:08.771Z,1027.2269841
2018-04-27T00:35:21.203Z,1027.2269841
2018-04-27T00:35:33.609Z,1027.2269841
2018-04-27T00:35:46.023Z,1027.2269841
2018-04-27T00:35:58.440Z,1027.2269841
2018-04-27T00:36:10.860Z,1027.29471186
2018-04-27T00:36:23.348Z,1027.29471186
2018-04-27T00:36:35.762Z,1027.29471186
2018-04-27T00:36:48.172Z,1027.29471186
2018-04-27T00:37:00.579Z,1027.15925633
2018-04-27T00:37:12.993Z,1027.15925633
2018-04-27T00:37:25.398Z,1027.15925633
2018-04-27T00:37:37.889Z,1027.15925633
2018-04-27T00:37:50.292Z,1027.15925633
2018-04-27T00:38:02.716Z,1027.15925633
2018-04-27T00:38:15.181Z,1027.15925633
2018-04-27T00:38:27.592Z,1027.15925633
2018-04-27T00:38:40.016Z,1027.15925633
2018-04-27T00:38:52.431Z,1027.15925633
2018-04-27T00:39:04.852Z,1027.12539245
2018-04-27T00:39:17.260Z,1027.12539245
2018-04-27T00:39:29.667Z,1027.12539245
2018-04-27T00:39:42.122Z,1027.12539245
2018-04-27T00:39:54.531Z,1027.12539245
2018-04-27T00:40:06.973Z,1027.19312021
2018-04-27T00:40:19.399Z,1027.19312021
2018-04-27T00:40:31.928Z,1027.19312021
2018-04-27T00:40:44.332Z,1027.19312021
2018-04-27T00:40:56.746Z,1027.19312021
2018-04-27T00:41:09.164Z,1027.19312021
2018-04-27T00:41:21.588Z,1027.19312021
2018-04-27T00:41:33.998Z,1027.19312021
2018-04-27T00:41:46.493Z,1027.19312021
2018-04-27T00:41:58.917Z,1027.19312021
2018-04-27T00:42:11.339Z,1027.19312021
2018-04-27T00:42:23.789Z,1027.19312021
2018-04-27T00:42:36.196Z,1027.19312021
2018-04-27T00:42:48.609Z,1027.19312021
2018-04-27T00:43:01.023Z,1027.12539245
2018-04-27T00:43:13.432Z,1027.12539245
2018-04-27T00:43:25.859Z,1027.12539245
2018-04-27T00:43:38.270Z,1027.12539245
2018-04-27T00:43:50.680Z,1027.12539245
2018-04-27T00:44:03.104Z,1027.15925633
2018-04-27T00:44:15.591Z,1027.15925633
2018-04-27T00:44:28.011Z,1027.15925633
2018-04-27T00:44:40.425Z,1027.15925633
2018-04-27T00:44:52.911Z,1027.15925633
2018-04-27T00:45:05.339Z,1027.05766469
2018-04-27T00:45:17.742Z,1027.05766469
2018-04-27T00:45:30.195Z,1027.05766469
2018-04-27T00:45:42.732Z,1027.05766469
2018-04-27T00:45:55.270Z,1027.05766469
2018-04-27T00:46:07.683Z,1026.98993692
2018-04-27T00:46:20.089Z,1026.98993692
2018-04-27T00:46:32.510Z,1026.98993692
2018-04-27T00:46:44.926Z,1026.98993692
2018-04-27T00:46:57.329Z,1026.98993692
2018-04-27T00:47:09.730Z,1027.02380081
2018-04-27T00:47:22.147Z,1027.02380081
2018-04-27T00:47:34.556Z,1027.02380081
2018-04-27T00:47:46.980Z,1027.02380081
2018-04-27T00:47:59.389Z,1027.02380081
2018-04-27T00:48:11.955Z,1027.05766469
2018-04-27T00:48:24.378Z,1027.05766469
2018-04-27T00:48:36.789Z,1027.05766469
2018-04-27T00:48:49.201Z,1027.05766469
2018-04-27T00:49:01.650Z,1026.98993692
2018-04-27T00:49:14.061Z,1026.98993692
2018-04-27T00:49:26.528Z,1026.98993692
2018-04-27T00:49:38.930Z,1026.98993692
2018-04-27T00:49:51.349Z,1026.98993692
2018-04-27T00:50:03.756Z,1027.05766469
2018-04-27T00:50:16.392Z,1027.05766469
2018-04-27T00:50:28.796Z,1027.05766469
2018-04-27T00:50:41.210Z,1027.05766469
2018-04-27T00:50:53.605Z,1027.05766469
2018-04-27T00:51:05.999Z,1027.09152857
2018-04-27T00:51:18.411Z,1027.09152857
2018-04-27T00:51:30.833Z,1027.09152857
2018-04-27T00:51:43.248Z,1027.09152857
2018-04-27T00:51:55.671Z,1027.09152857
2018-04-27T00:52:08.091Z,1027.15925633
2018-04-27T00:52:20.482Z,1027.15925633
2018-04-27T00:52:32.943Z,1027.15925633
2018-04-27T00:52:45.348Z,1027.15925633
2018-04-27T00:52:57.770Z,1027.15925633
2018-04-27T00:53:10.182Z,1027.12539245
2018-04-27T00:53:22.582Z,1027.12539245
2018-04-27T00:53:34.988Z,1027.12539245
2018-04-27T00:53:47.387Z,1027.12539245
2018-04-27T00:53:59.805Z,1027.12539245
2018-04-27T00:54:12.226Z,1027.15925633
2018-04-27T00:54:24.640Z,1027.15925633
2018-04-27T00:54:37.051Z,1027.15925633
2018-04-27T00:54:49.465Z,1027.15925633
2018-04-27T00:55:01.891Z,1027.12539245
2018-04-27T00:55:14.300Z,1027.12539245
2018-04-27T00:55:26.705Z,1027.12539245
2018-04-27T00:55:39.123Z,1027.12539245
2018-04-27T00:55:51.514Z,1027.12539245
2018-04-27T00:56:03.918Z,1027.05766469
2018-04-27T00:56:16.324Z,1027.05766469
2018-04-27T00:56:28.728Z,1027.05766469
2018-04-27T00:56:41.127Z,1027.05766469
2018-04-27T00:56:53.538Z,1027.05766469
2018-04-27T00:57:05.947Z,1027.12539245
2018-04-27T00:57:18.445Z,1027.12539245
2018-04-27T00:57:30.846Z,1027.12539245
2018-04-27T00:57:43.295Z,1027.12539245
2018-04-27T00:57:55.698Z,1027.12539245
2018-04-27T00:58:08.138Z,1026.98993692
2018-04-27T00:58:20.546Z,1026.98993692
2018-04-27T00:58:32.964Z,1026.98993692
2018-04-27T00:58:45.377Z,1026.98993692
2018-04-27T00:58:57.785Z,1026.98993692
2018-04-27T00:59:10.201Z,1027.02380081
2018-04-27T00:59:22.607Z,1027.02380081
2018-04-27T00:59:35.069Z,1027.02380081
2018-04-27T00:59:47.468Z,1027.02380081
2018-04-27T00:59:59.872Z,1027.02380081
2018-04-27T01:00:12.380Z,1027.02380081
2018-04-27T01:00:24.854Z,1027.02380081
2018-04-27T01:00:37.323Z,1027.02380081
2018-04-27T01:00:49.728Z,1027.02380081
2018-04-27T01:01:02.150Z,1027.09152857
2018-04-27T01:01:14.560Z,1027.09152857
2018-04-27T01:01:26.986Z,1027.09152857
2018-04-27T01:01:39.387Z,1027.09152857
2018-04-27T01:01:51.796Z,1027.09152857
2018-04-27T01:02:04.212Z,1027.02380081
2018-04-27T01:02:16.615Z,1027.02380081
2018-04-27T01:02:29.027Z,1027.02380081
2018-04-27T01:02:41.713Z,1027.02380081
2018-04-27T01:02:54.151Z,1027.02380081
2018-04-27T01:03:06.568Z,1027.02380081
2018-04-27T01:03:18.972Z,1027.02380081
2018-04-27T01:03:31.376Z,1027.02380081
2018-04-27T01:03:43.789Z,1027.02380081
2018-04-27T01:03:56.188Z,1027.02380081
2018-04-27T01:04:08.593Z,1027.05766469
2018-04-27T01:04:21.003Z,1027.05766469
2018-04-27T01:04:33.410Z,1027.05766469
2018-04-27T01:04:45.815Z,1027.05766469
2018-04-27T01:04:58.227Z,1027.05766469
2018-04-27T01:05:10.647Z,1027.09152857
2018-04-27T01:05:23.043Z,1027.09152857
2018-04-27T01:05:35.437Z,1027.09152857
2018-04-27T01:05:47.848Z,1027.09152857
2018-04-27T01:06:00.246Z,1027.09152857
2018-04-27T01:06:12.649Z,1027.05766469
2018-04-27T01:06:25.068Z,1027.05766469
2018-04-27T01:06:37.476Z,1027.05766469
2018-04-27T01:06:49.878Z,1027.05766469
2018-04-27T01:07:02.308Z,1027.05766469
2018-04-27T01:07:14.733Z,1027.05766469
2018-04-27T01:07:27.215Z,1027.05766469
2018-04-27T01:07:39.700Z,1027.05766469
2018-04-27T01:07:52.096Z,1027.05766469
2018-04-27T01:08:04.513Z,1026.98993692
2018-04-27T01:08:16.926Z,1026.98993692
2018-04-27T01:08:29.341Z,1026.98993692
2018-04-27T01:08:41.738Z,1026.98993692
2018-04-27T01:08:54.212Z,1026.98993692
2018-04-27T01:09:06.633Z,1026.92220916
2018-04-27T01:09:19.036Z,1026.92220916
2018-04-27T01:09:31.437Z,1026.92220916
2018-04-27T01:09:43.917Z,1026.92220916
2018-04-27T01:09:56.522Z,1026.92220916
2018-04-27T01:10:08.966Z,1027.02380081
2018-04-27T01:10:21.385Z,1027.02380081
2018-04-27T01:10:33.805Z,1027.02380081
2018-04-27T01:10:46.211Z,1027.02380081
2018-04-27T01:10:58.630Z,1027.02380081
2018-04-27T01:11:11.039Z,1027.02380081
2018-04-27T01:11:23.452Z,1027.02380081
2018-04-27T01:11:35.861Z,1027.02380081
2018-04-27T01:11:48.283Z,1027.02380081
2018-04-27T01:12:00.708Z,1026.98993692
2018-04-27T01:12:13.119Z,1026.98993692
2018-04-27T01:12:25.538Z,1026.98993692
2018-04-27T01:12:37.957Z,1026.98993692
2018-04-27T01:12:50.372Z,1026.98993692
2018-04-27T01:13:02.880Z,1026.95607304
2018-04-27T01:13:15.364Z,1026.95607304
2018-04-27T01:13:27.778Z,1026.95607304
2018-04-27T01:13:40.341Z,1026.95607304
2018-04-27T01:13:52.747Z,1026.95607304
2018-04-27T01:14:05.158Z,1026.98993692
2018-04-27T01:14:17.620Z,1026.98993692
2018-04-27T01:14:30.045Z,1026.98993692
2018-04-27T01:14:42.458Z,1026.98993692
2018-04-27T01:14:54.860Z,1026.98993692
2018-04-27T01:15:07.436Z,1027.09152857
2018-04-27T01:15:19.864Z,1027.09152857
2018-04-27T01:15:32.291Z,1027.09152857
2018-04-27T01:15:44.702Z,1027.09152857
2018-04-27T01:15:57.114Z,1027.09152857
2018-04-27T01:16:09.524Z,1027.02380081
2018-04-27T01:16:21.946Z,1027.02380081
2018-04-27T01:16:34.357Z,1027.02380081
2018-04-27T01:16:46.803Z,1027.02380081
2018-04-27T01:16:59.219Z,1027.02380081
2018-04-27T01:17:11.641Z,1027.02380081
2018-04-27T01:17:24.035Z,1027.02380081
2018-04-27T01:17:36.436Z,1027.02380081
2018-04-27T01:17:48.860Z,1027.02380081
2018-04-27T01:18:01.259Z,1027.12539245
2018-04-27T01:18:13.656Z,1027.12539245
2018-04-27T01:18:26.234Z,1027.12539245
2018-04-27T01:18:38.810Z,1027.12539245
2018-04-27T01:18:51.227Z,1027.12539245
2018-04-27T01:19:03.645Z,1027.02380081
2018-04-27T01:19:16.055Z,1027.02380081
2018-04-27T01:19:28.461Z,1027.02380081
2018-04-27T01:19:40.865Z,1027.02380081
2018-04-27T01:19:53.276Z,1027.02380081
2018-04-27T01:20:05.728Z,1027.09152857
2018-04-27T01:20:18.175Z,1027.09152857
2018-04-27T01:20:30.578Z,1027.09152857
2018-04-27T01:20:42.988Z,1027.09152857
2018-04-27T01:20:55.392Z,1027.09152857
2018-04-27T01:21:07.793Z,1027.05766469
2018-04-27T01:21:20.202Z,1027.05766469
2018-04-27T01:21:32.614Z,1027.05766469
2018-04-27T01:21:45.027Z,1027.05766469
2018-04-27T01:21:57.676Z,1027.05766469
2018-04-27T01:22:10.075Z,1027.05766469
2018-04-27T01:22:22.662Z,1027.05766469
2018-04-27T01:22:35.071Z,1027.05766469
2018-04-27T01:22:47.486Z,1027.05766469
2018-04-27T01:22:59.886Z,1027.05766469
2018-04-27T01:23:12.299Z,1026.98993692
2018-04-27T01:23:24.691Z,1026.98993692
2018-04-27T01:23:37.100Z,1026.98993692
2018-04-27T01:23:49.522Z,1026.98993692
2018-04-27T01:24:01.953Z,1027.05766469
2018-04-27T01:24:14.368Z,1027.05766469
2018-04-27T01:24:26.778Z,1027.05766469
2018-04-27T01:24:39.188Z,1027.05766469
2018-04-27T01:24:51.597Z,1027.05766469
2018-04-27T01:25:04.013Z,1026.98993692
2018-04-27T01:25:16.424Z,1026.98993692
2018-04-27T01:25:28.836Z,1026.98993692
2018-04-27T01:25:41.253Z,1026.98993692
2018-04-27T01:25:53.661Z,1026.98993692
2018-04-27T01:26:06.117Z,1027.02380081
2018-04-27T01:26:18.524Z,1027.02380081
2018-04-27T01:26:30.950Z,1027.02380081
2018-04-27T01:26:43.370Z,1027.02380081
2018-04-27T01:26:55.783Z,1027.02380081
2018-04-27T01:27:08.187Z,1026.95607304
2018-04-27T01:27:20.592Z,1026.95607304
2018-04-27T01:27:33.022Z,1026.95607304
2018-04-27T01:27:45.541Z,1026.95607304
2018-04-27T01:27:57.945Z,1026.95607304
2018-04-27T01:28:10.349Z,1027.02380081
2018-04-27T01:28:22.759Z,1027.02380081
2018-04-27T01:28:35.248Z,1027.02380081
2018-04-27T01:28:47.680Z,1027.02380081
2018-04-27T01:29:00.103Z,1027.02380081
2018-04-27T01:29:12.509Z,1027.02380081
2018-04-27T01:29:24.914Z,1027.02380081
2018-04-27T01:29:37.339Z,1027.02380081
2018-04-27T01:29:49.747Z,1027.02380081
2018-04-27T01:30:02.150Z,1027.02380081
2018-04-27T01:30:14.559Z,1027.02380081
2018-04-27T01:30:26.962Z,1027.02380081
2018-04-27T01:30:39.358Z,1027.02380081
2018-04-27T01:30:51.762Z,1027.02380081
2018-04-27T01:31:04.150Z,1027.02380081
2018-04-27T01:31:16.582Z,1027.02380081
2018-04-27T01:31:29.000Z,1027.02380081
2018-04-27T01:31:41.402Z,1027.02380081
2018-04-27T01:31:53.819Z,1027.02380081
2018-04-27T01:32:06.235Z,1026.95607304
2018-04-27T01:32:18.649Z,1026.95607304
2018-04-27T01:32:31.083Z,1026.95607304
2018-04-27T01:32:43.497Z,1026.95607304
2018-04-27T01:32:55.919Z,1026.95607304
2018-04-27T01:33:08.321Z,1026.98993692
2018-04-27T01:33:20.725Z,1026.98993692
2018-04-27T01:33:33.145Z,1026.98993692
2018-04-27T01:33:45.564Z,1026.98993692
2018-04-27T01:33:58.215Z,1026.98993692
2018-04-27T01:34:10.616Z,1027.02380081
2018-04-27T01:34:23.034Z,1027.02380081
2018-04-27T01:34:35.450Z,1027.02380081
2018-04-27T01:34:47.855Z,1027.02380081
2018-04-27T01:35:00.289Z,1027.02380081
2018-04-27T01:35:12.714Z,1027.02380081
2018-04-27T01:35:25.128Z,1027.02380081
2018-04-27T01:35:37.562Z,1027.02380081
2018-04-27T01:35:49.992Z,1027.02380081
2018-04-27T01:36:02.384Z,1026.88834528
2018-04-27T01:36:14.776Z,1026.88834528
2018-04-27T01:36:27.180Z,1026.88834528
2018-04-27T01:36:39.588Z,1026.88834528
2018-04-27T01:36:51.998Z,1026.88834528
2018-04-27T01:37:04.402Z,1026.92220916
2018-04-27T01:37:16.821Z,1026.92220916
2018-04-27T01:37:29.234Z,1026.92220916
2018-04-27T01:37:41.720Z,1026.92220916
2018-04-27T01:37:54.113Z,1026.92220916
2018-04-27T01:38:06.515Z,1026.95607304
2018-04-27T01:38:18.921Z,1026.95607304
2018-04-27T01:38:31.331Z,1026.95607304
2018-04-27T01:38:43.740Z,1026.95607304
2018-04-27T01:38:56.153Z,1026.95607304
2018-04-27T01:39:08.566Z,1027.02380081
2018-04-27T01:39:20.981Z,1027.02380081
2018-04-27T01:39:33.383Z,1027.02380081
2018-04-27T01:39:45.789Z,1027.02380081
2018-04-27T01:39:58.181Z,1027.02380081
2018-04-27T01:40:10.585Z,1026.92220916
2018-04-27T01:40:22.982Z,1026.92220916
2018-04-27T01:40:35.962Z,1026.92220916
2018-04-27T01:40:48.371Z,1026.92220916
2018-04-27T01:41:00.792Z,1026.92220916
2018-04-27T01:41:13.187Z,1026.92220916
2018-04-27T01:41:25.590Z,1026.92220916
2018-04-27T01:41:38.002Z,1026.92220916
2018-04-27T01:41:50.420Z,1026.92220916
2018-04-27T01:42:02.835Z,1027.05766469
2018-04-27T01:42:15.242Z,1027.05766469
2018-04-27T01:42:27.655Z,1027.05766469
2018-04-27T01:42:40.063Z,1027.05766469
2018-04-27T01:42:52.484Z,1027.05766469
2018-04-27T01:43:04.892Z,1027.05766469
2018-04-27T01:43:17.416Z,1027.05766469
2018-04-27T01:43:29.826Z,1027.05766469
2018-04-27T01:43:42.241Z,1027.05766469
2018-04-27T01:43:54.645Z,1027.05766469
2018-04-27T01:44:07.049Z,1027.15925633
2018-04-27T01:44:19.473Z,1027.15925633
2018-04-27T01:44:31.878Z,1027.15925633
2018-04-27T01:44:44.284Z,1027.15925633
2018-04-27T01:44:56.683Z,1027.15925633
2018-04-27T01:45:09.090Z,1027.05766469
2018-04-27T01:45:21.575Z,1027.05766469
2018-04-27T01:45:34.009Z,1027.05766469
2018-04-27T01:45:46.588Z,1027.05766469
2018-04-27T01:45:59.001Z,1027.05766469
2018-04-27T01:46:11.431Z,1027.12539245
2018-04-27T01:46:23.860Z,1027.12539245
2018-04-27T01:46:36.343Z,1027.12539245
2018-04-27T01:46:48.747Z,1027.12539245
2018-04-27T01:47:01.210Z,1027.09152857
2018-04-27T01:47:13.640Z,1027.09152857
2018-04-27T01:47:26.040Z,1027.09152857
2018-04-27T01:47:38.461Z,1027.09152857
2018-04-27T01:47:50.872Z,1027.09152857
2018-04-27T01:48:03.346Z,1027.05766469
2018-04-27T01:48:15.975Z,1027.05766469
2018-04-27T01:48:28.395Z,1027.05766469
2018-04-27T01:48:40.802Z,1027.05766469
2018-04-27T01:48:53.217Z,1027.05766469
2018-04-27T01:49:05.667Z,1027.15925633
2018-04-27T01:49:18.086Z,1027.15925633
2018-04-27T01:49:30.487Z,1027.15925633
2018-04-27T01:49:42.895Z,1027.15925633
2018-04-27T01:49:55.299Z,1027.15925633
2018-04-27T01:50:07.917Z,1027.12539245
2018-04-27T01:50:20.331Z,1027.12539245
2018-04-27T01:50:32.775Z,1027.12539245
2018-04-27T01:50:45.178Z,1027.12539245
2018-04-27T01:50:57.677Z,1027.12539245
2018-04-27T01:51:10.089Z,1027.15925633
2018-04-27T01:51:22.478Z,1027.15925633
2018-04-27T01:51:34.923Z,1027.15925633
2018-04-27T01:51:47.339Z,1027.15925633
2018-04-27T01:51:59.744Z,1027.15925633
2018-04-27T01:52:12.163Z,1027.09152857
2018-04-27T01:52:24.571Z,1027.09152857
2018-04-27T01:52:36.977Z,1027.09152857
2018-04-27T01:52:49.738Z,1027.09152857
2018-04-27T01:53:02.155Z,1027.05766469
2018-04-27T01:53:14.576Z,1027.05766469
2018-04-27T01:53:26.986Z,1027.05766469
2018-04-27T01:53:39.390Z,1027.05766469
2018-04-27T01:53:51.813Z,1027.05766469
2018-04-27T01:54:04.230Z,1027.09152857
2018-04-27T01:54:16.638Z,1027.09152857
2018-04-27T01:54:29.057Z,1027.09152857
2018-04-27T01:54:41.473Z,1027.09152857
2018-04-27T01:54:53.895Z,1027.09152857
2018-04-27T01:55:06.311Z,1027.15925633
2018-04-27T01:55:18.733Z,1027.15925633
2018-04-27T01:55:31.143Z,1027.15925633
2018-04-27T01:55:43.553Z,1027.15925633
2018-04-27T01:55:55.979Z,1027.15925633
2018-04-27T01:56:08.376Z,1027.09152857
2018-04-27T01:56:20.792Z,1027.09152857
2018-04-27T01:56:33.191Z,1027.09152857
2018-04-27T01:56:45.605Z,1027.09152857
2018-04-27T01:56:58.020Z,1027.09152857
2018-04-27T01:57:10.420Z,1027.19312021
2018-04-27T01:57:22.831Z,1027.19312021
2018-04-27T01:57:35.238Z,1027.19312021
2018-04-27T01:57:47.772Z,1027.19312021
2018-04-27T01:58:00.173Z,1027.19312021
2018-04-27T01:58:12.638Z,1027.05766469
2018-04-27T01:58:25.049Z,1027.05766469
2018-04-27T01:58:37.445Z,1027.05766469
2018-04-27T01:58:49.847Z,1027.05766469
2018-04-27T01:59:02.258Z,1027.09152857
2018-04-27T01:59:14.665Z,1027.09152857
2018-04-27T01:59:27.088Z,1027.09152857
2018-04-27T01:59:39.502Z,1027.09152857
2018-04-27T01:59:51.941Z,1027.09152857
2018-04-27T02:00:04.362Z,1027.15925633
2018-04-27T02:00:16.801Z,1027.15925633
2018-04-27T02:00:29.242Z,1027.15925633
2018-04-27T02:00:41.672Z,1027.15925633
2018-04-27T02:00:54.088Z,1027.15925633
2018-04-27T02:01:06.557Z,1027.19312021
2018-04-27T02:01:18.950Z,1027.19312021
2018-04-27T02:01:31.347Z,1027.19312021
2018-04-27T02:01:43.773Z,1027.19312021
2018-04-27T02:01:56.335Z,1027.19312021
2018-04-27T02:02:08.752Z,1027.15925633
2018-04-27T02:02:21.163Z,1027.15925633
2018-04-27T02:02:33.604Z,1027.15925633
2018-04-27T02:02:46.000Z,1027.15925633
2018-04-27T02:02:58.406Z,1027.15925633
2018-04-27T02:03:10.820Z,1027.09152857
2018-04-27T02:03:23.248Z,1027.09152857
2018-04-27T02:03:35.646Z,1027.09152857
2018-04-27T02:03:48.047Z,1027.09152857
2018-04-27T02:04:00.445Z,1027.09152857
2018-04-27T02:04:12.859Z,1027.12539245
2018-04-27T02:04:25.264Z,1027.12539245
2018-04-27T02:04:37.682Z,1027.12539245
2018-04-27T02:04:50.091Z,1027.12539245
2018-04-27T02:05:02.484Z,1027.15925633
2018-04-27T02:05:14.900Z,1027.15925633
2018-04-27T02:05:27.317Z,1027.15925633
2018-04-27T02:05:39.730Z,1027.15925633
2018-04-27T02:05:52.133Z,1027.15925633
2018-04-27T02:06:05.049Z,1027.05766469
2018-04-27T02:06:17.464Z,1027.05766469
2018-04-27T02:06:30.224Z,1027.05766469
2018-04-27T02:06:42.644Z,1027.05766469
2018-04-27T02:06:55.096Z,1027.05766469
2018-04-27T02:07:07.551Z,1027.05766469
2018-04-27T02:07:19.952Z,1027.05766469